createdAt,value
2023-01-21T00:00:16.603Z,101921.56
2023-01-21T00:02:44.273Z,101934.59
2023-01-21T00:05:11.785Z,101919.84
2023-01-21T00:07:40.689Z,101940.84
2023-01-21T00:10:08.520Z,101924.22
2023-01-21T00:12:36.194Z,101933.81
2023-01-21T00:15:03.756Z,101935.31
2023-01-21T00:17:35.338Z,101940.59
2023-01-21T00:20:02.989Z,101952.69
2023-01-21T00:22:30.461Z,101959.66
2023-01-21T00:24:59.285Z,101957.91
2023-01-21T00:27:26.863Z,101965.75
2023-01-21T00:29:54.391Z,101972.69
2023-01-21T00:32:21.886Z,101951.78
2023-01-21T00:34:49.396Z,101959.72
2023-01-21T00:37:16.905Z,101966.59
2023-01-21T00:39:44.354Z,101968.38
2023-01-21T00:42:13.179Z,101970.81
2023-01-21T00:44:40.636Z,101969.81
2023-01-21T00:47:08.445Z,101983.94
2023-01-21T00:49:35.985Z,101962.03
2023-01-21T00:52:03.443Z,101967.97
2023-01-21T00:54:32.293Z,101988.84
2023-01-21T00:56:59.787Z,101997.69
2023-01-21T00:59:29.951Z,101991.56
2023-01-21T01:01:57.445Z,101986.34
2023-01-21T01:04:24.907Z,101989.72
2023-01-21T01:06:52.464Z,102004.47
2023-01-21T01:09:19.922Z,101993.94
2023-01-21T01:11:47.393Z,102021.06
2023-01-21T01:14:14.890Z,102025.34
2023-01-21T01:16:43.775Z,102021.88
2023-01-21T01:19:11.819Z,102036.47
2023-01-21T01:21:39.413Z,102036.53
2023-01-21T01:24:07.181Z,102046.13
2023-01-21T01:26:35.495Z,102043.63
2023-01-21T01:29:03.257Z,102037.25
2023-01-21T01:31:30.752Z,102045.97
2023-01-21T01:33:59.663Z,102048.41
2023-01-21T01:36:27.118Z,102037.75
2023-01-21T01:38:54.787Z,102047.19
2023-01-21T01:41:22.997Z,102057.81
2023-01-21T01:43:58.133Z,102055.03
2023-01-21T01:46:26.278Z,102063.06
2023-01-21T01:48:55.169Z,102059.47
2023-01-21T01:51:24.658Z,102071.81
2023-01-21T01:53:52.146Z,102061.03
2023-01-21T01:56:19.662Z,102067.88
2023-01-21T01:58:47.172Z,102060.03
2023-01-21T02:01:14.659Z,102077.38
2023-01-21T02:03:45.316Z,102090.56
2023-01-21T02:06:12.938Z,102092.38
2023-01-21T02:08:41.834Z,102082.59
2023-01-21T02:11:12.750Z,102090.47
2023-01-21T02:13:40.350Z,102093.91
2023-01-21T02:16:17.500Z,102101.78
2023-01-21T02:18:46.258Z,102104.47
2023-01-21T02:21:31.682Z,102095.38
2023-01-21T02:24:10.891Z,102090.16
2023-01-21T02:26:47.304Z,102093.00
2023-01-21T02:29:35.502Z,102092.03
2023-01-21T02:32:11.881Z,102097.94
2023-01-21T02:34:41.422Z,102093.53
2023-01-21T02:37:10.984Z,102100.63
2023-01-21T02:39:45.889Z,102114.94
2023-01-21T02:42:13.820Z,102110.25
2023-01-21T02:44:41.908Z,102103.38
2023-01-21T02:47:15.985Z,102104.22
2023-01-21T02:49:45.518Z,102123.69
2023-01-21T02:52:17.908Z,102120.28
2023-01-21T02:54:49.715Z,102104.09
2023-01-21T02:57:17.754Z,102120.88
2023-01-21T02:59:45.737Z,102122.38
2023-01-21T03:02:14.297Z,102124.03
2023-01-21T03:04:46.795Z,102133.53
2023-01-21T03:07:14.656Z,102134.66
2023-01-21T03:09:42.207Z,102146.06
2023-01-21T03:12:17.473Z,102162.00
2023-01-21T03:15:03.750Z,102148.38
2023-01-21T03:17:33.500Z,102158.84
2023-01-21T03:20:03.630Z,102182.63
2023-01-21T03:22:32.680Z,102152.16
2023-01-21T03:25:00.707Z,102152.19
2023-01-21T03:27:28.348Z,102171.25
2023-01-21T03:29:57.629Z,102146.97
2023-01-21T03:32:25.183Z,102160.44
2023-01-21T03:34:52.890Z,102151.59
2023-01-21T03:37:23.813Z,102166.34
2023-01-21T03:39:53.600Z,102171.56
2023-01-21T03:42:21.203Z,102168.66
2023-01-21T03:44:48.690Z,102180.50
2023-01-21T03:47:18.392Z,102169.69
2023-01-21T03:49:46.365Z,102202.72
2023-01-21T03:52:13.982Z,102201.81
2023-01-21T03:54:42.825Z,102186.88
2023-01-21T03:57:10.332Z,102184.94
2023-01-21T03:59:37.795Z,102192.06
2023-01-21T04:02:05.318Z,102211.66
2023-01-21T04:04:32.864Z,102216.25
2023-01-21T04:07:00.388Z,102200.88
2023-01-21T04:09:27.935Z,102203.47
2023-01-21T04:11:57.744Z,102198.66
2023-01-21T04:14:25.365Z,102206.47
2023-01-21T04:16:52.827Z,102217.91
2023-01-21T04:19:20.298Z,102211.56
2023-01-21T04:21:47.741Z,102214.34
2023-01-21T04:24:15.234Z,102210.69
2023-01-21T04:26:42.729Z,102217.66
2023-01-21T04:29:11.559Z,102228.22
2023-01-21T04:31:39.044Z,102224.66
2023-01-21T04:34:06.563Z,102221.50
2023-01-21T04:36:34.056Z,102225.84
2023-01-21T04:39:01.598Z,102233.78
2023-01-21T04:41:29.102Z,102233.19
2023-01-21T04:43:56.600Z,102216.47
2023-01-21T04:46:25.475Z,102214.69
2023-01-21T04:48:53.189Z,102216.75
2023-01-21T04:51:20.879Z,102211.41
2023-01-21T04:53:48.390Z,102214.75
2023-01-21T04:56:15.973Z,102214.75
2023-01-21T04:58:43.494Z,102208.50
2023-01-21T05:01:11.070Z,102223.25
2023-01-21T05:03:39.926Z,102226.94
2023-01-21T05:06:07.663Z,102225.38
2023-01-21T05:08:35.189Z,102216.53
2023-01-21T05:11:02.659Z,102220.97
2023-01-21T05:13:30.127Z,102228.91
2023-01-21T05:15:57.658Z,102235.03
2023-01-21T05:18:25.240Z,102227.94
2023-01-21T05:20:55.538Z,102219.97
2023-01-21T05:23:23.090Z,102228.59
2023-01-21T05:25:50.593Z,102244.97
2023-01-21T05:28:18.066Z,102246.91
2023-01-21T05:30:45.629Z,102246.91
2023-01-21T05:33:13.178Z,102247.13
2023-01-21T05:35:40.697Z,102249.72
2023-01-21T05:38:09.532Z,102260.25
2023-01-21T05:40:37.053Z,102248.03
2023-01-21T05:43:04.521Z,102255.72
2023-01-21T05:45:32.055Z,102262.00
2023-01-21T05:47:59.559Z,102254.19
2023-01-21T05:50:27.049Z,102263.78
2023-01-21T05:52:54.555Z,102262.84
2023-01-21T05:55:23.447Z,102273.31
2023-01-21T05:57:51.325Z,102261.88
2023-01-21T06:00:19.649Z,102268.88
2023-01-21T06:02:47.364Z,102278.53
2023-01-21T06:05:14.924Z,102275.00
2023-01-21T06:07:42.382Z,102285.44
2023-01-21T06:10:10.358Z,102294.09
2023-01-21T06:12:39.227Z,102295.00
2023-01-21T06:15:07.390Z,102307.25
2023-01-21T06:17:34.872Z,102298.38
2023-01-21T06:20:02.368Z,102314.06
2023-01-21T06:22:29.875Z,102312.38
2023-01-21T06:24:57.366Z,102310.63
2023-01-21T06:27:24.952Z,102315.94
2023-01-21T06:29:53.793Z,102310.72
2023-01-21T06:32:21.394Z,102316.78
2023-01-21T06:34:48.929Z,102316.69
2023-01-21T06:37:16.478Z,102314.97
2023-01-21T06:39:43.945Z,102321.91
2023-01-21T06:42:11.468Z,102316.63
2023-01-21T06:44:38.940Z,102332.34
2023-01-21T06:47:07.805Z,102343.72
2023-01-21T06:49:35.358Z,102353.28
2023-01-21T06:52:02.856Z,102350.72
2023-01-21T06:54:30.684Z,102340.28
2023-01-21T06:56:58.289Z,102350.72
2023-01-21T06:59:25.843Z,102368.09
2023-01-21T07:01:53.579Z,102358.53
2023-01-21T07:04:22.442Z,102365.50
2023-01-21T07:06:50.036Z,102364.63
2023-01-21T07:09:17.505Z,102368.09
2023-01-21T07:11:45.039Z,102368.94
2023-01-21T07:14:12.654Z,102378.53
2023-01-21T07:16:40.175Z,102375.00
2023-01-21T07:19:07.862Z,102381.13
2023-01-21T07:21:36.715Z,102389.88
2023-01-21T07:24:04.362Z,102382.81
2023-01-21T07:26:36.164Z,102374.94
2023-01-21T07:29:03.711Z,102389.81
2023-01-21T07:31:31.369Z,102394.22
2023-01-21T07:33:58.946Z,102406.38
2023-01-21T07:36:26.666Z,102404.63
2023-01-21T07:38:55.584Z,102402.88
2023-01-21T07:41:23.083Z,102414.22
2023-01-21T07:43:50.809Z,102417.69
2023-01-21T07:46:18.556Z,102410.72
2023-01-21T07:48:48.195Z,102420.31
2023-01-21T07:51:15.845Z,102420.28
2023-01-21T07:53:43.403Z,102429.84
2023-01-21T07:56:12.272Z,102434.19
2023-01-21T07:58:39.811Z,102428.91
2023-01-21T08:01:07.959Z,102444.56
2023-01-21T08:03:35.457Z,102431.31
2023-01-21T08:06:02.901Z,102445.03
2023-01-21T08:08:30.361Z,102456.56
2023-01-21T08:10:57.817Z,102465.34
2023-01-21T08:13:26.947Z,102474.94
2023-01-21T08:15:55.322Z,102457.41
2023-01-21T08:18:23.093Z,102474.72
2023-01-21T08:20:54.262Z,102468.00
2023-01-21T08:23:21.835Z,102474.09
2023-01-21T08:25:49.367Z,102466.28
2023-01-21T08:28:16.883Z,102475.94
2023-01-21T08:30:45.815Z,102476.81
2023-01-21T08:33:13.351Z,102468.09
2023-01-21T08:35:40.810Z,102468.94
2023-01-21T08:38:08.346Z,102465.50
2023-01-21T08:40:35.853Z,102472.47
2023-01-21T08:43:03.992Z,102474.19
2023-01-21T08:45:31.603Z,102483.78
2023-01-21T08:48:02.956Z,102489.00
2023-01-21T08:50:30.455Z,102485.53
2023-01-21T08:52:57.962Z,102481.19
2023-01-21T08:55:26.747Z,102484.69
2023-01-21T08:57:54.620Z,102481.22
2023-01-21T09:00:22.993Z,102486.44
2023-01-21T09:02:51.710Z,102482.97
2023-01-21T09:05:20.804Z,102495.13
2023-01-21T09:07:48.320Z,102505.53
2023-01-21T09:10:37.457Z,102501.19
2023-01-21T09:13:05.621Z,102491.66
2023-01-21T09:15:33.083Z,102491.66
2023-01-21T09:18:00.614Z,102508.16
2023-01-21T09:20:29.496Z,102513.41
2023-01-21T09:22:57.049Z,102491.53
2023-01-21T09:25:24.635Z,102509.00
2023-01-21T09:27:52.413Z,102509.72
2023-01-21T09:30:19.948Z,102507.25
2023-01-21T09:32:47.472Z,102515.91
2023-01-21T09:35:15.288Z,102515.94
2023-01-21T09:37:44.289Z,102518.56
2023-01-21T09:40:14.727Z,102510.59
2023-01-21T09:42:42.589Z,102515.72
2023-01-21T09:45:10.417Z,102538.56
2023-01-21T09:47:38.615Z,102538.47
2023-01-21T09:50:07.214Z,102542.69
2023-01-21T09:52:36.930Z,102536.41
2023-01-21T09:55:06.337Z,102554.03
2023-01-21T09:57:37.143Z,102554.97
2023-01-21T10:00:08.915Z,102576.94
2023-01-21T10:02:38.871Z,102552.38
2023-01-21T10:05:14.231Z,102563.75
2023-01-21T10:07:42.869Z,102545.94
2023-01-21T10:10:13.027Z,102567.03
2023-01-21T10:12:54.089Z,102576.78
2023-01-21T10:15:36.463Z,102559.22
2023-01-21T10:18:04.495Z,102569.81
2023-01-21T10:20:32.326Z,102555.09
2023-01-21T10:23:01.114Z,102543.56
2023-01-21T10:25:30.963Z,102545.47
2023-01-21T10:27:59.565Z,102569.97
2023-01-21T10:30:28.740Z,102576.91
2023-01-21T10:32:56.409Z,102576.03
2023-01-21T10:35:28.332Z,102556.91
2023-01-21T10:37:56.565Z,102578.56
2023-01-21T10:40:42.755Z,102575.03
2023-01-21T10:43:12.558Z,102546.47
2023-01-21T10:45:41.779Z,102552.56
2023-01-21T10:48:12.194Z,102564.63
2023-01-21T10:50:42.074Z,102561.81
2023-01-21T10:53:13.434Z,102554.16
2023-01-21T10:55:44.166Z,102549.91
2023-01-21T10:58:15.842Z,102554.31
2023-01-21T11:00:44.575Z,102546.47
2023-01-21T11:03:12.726Z,102556.03
2023-01-21T11:05:40.224Z,102572.56
2023-01-21T11:08:07.706Z,102575.09
2023-01-21T11:10:35.240Z,102567.34
2023-01-21T11:13:02.763Z,102564.75
2023-01-21T11:15:31.763Z,102557.78
2023-01-21T11:17:59.726Z,102561.25
2023-01-21T11:20:29.649Z,102563.88
2023-01-21T11:22:57.224Z,102542.91
2023-01-21T11:25:29.238Z,102554.25
2023-01-21T11:27:56.738Z,102575.13
2023-01-21T11:30:49.728Z,102582.06
2023-01-21T11:33:23.350Z,102570.84
2023-01-21T11:35:50.917Z,102569.03
2023-01-21T11:38:25.913Z,102564.75
2023-01-21T11:41:07.473Z,102549.09
2023-01-21T11:43:36.809Z,102563.00
2023-01-21T11:46:26.340Z,102562.13
2023-01-21T11:48:54.990Z,102565.59
2023-01-21T11:51:22.491Z,102558.66
2023-01-21T11:53:49.937Z,102578.56
2023-01-21T11:56:17.697Z,102572.50
2023-01-21T11:58:45.259Z,102576.81
2023-01-21T12:01:20.405Z,102574.81
2023-01-21T12:03:51.508Z,102574.00
2023-01-21T12:06:19.213Z,102572.19
2023-01-21T12:08:49.231Z,102559.16
2023-01-21T12:11:18.661Z,102555.75
2023-01-21T12:13:47.084Z,102557.38
2023-01-21T12:16:35.278Z,102550.50
2023-01-21T12:19:16.406Z,102556.28
2023-01-21T12:21:47.634Z,102536.53
2023-01-21T12:24:18.808Z,102542.75
2023-01-21T12:26:46.695Z,102544.38
2023-01-21T12:29:22.837Z,102547.97
2023-01-21T12:31:52.027Z,102544.44
2023-01-21T12:34:22.600Z,102536.75
2023-01-21T12:36:50.907Z,102554.13
2023-01-21T12:39:19.886Z,102545.31
2023-01-21T12:41:48.349Z,102539.22
2023-01-21T12:44:17.759Z,102537.44
2023-01-21T12:46:45.714Z,102521.13
2023-01-21T12:49:15.414Z,102529.75
2023-01-21T12:51:44.621Z,102535.75
2023-01-21T12:54:14.955Z,102531.41
2023-01-21T12:56:43.354Z,102540.72
2023-01-21T12:59:13.179Z,102542.25
2023-01-21T13:01:42.342Z,102530.31
2023-01-21T13:04:15.680Z,102548.38
2023-01-21T13:06:53.596Z,102544.97
2023-01-21T13:09:23.379Z,102538.06
2023-01-21T13:11:51.742Z,102523.66
2023-01-21T13:14:22.554Z,102541.00
2023-01-21T13:16:50.640Z,102547.09
2023-01-21T13:19:18.164Z,102530.78
2023-01-21T13:21:48.874Z,102527.34
2023-01-21T13:24:17.045Z,102531.66
2023-01-21T13:26:46.556Z,102534.28
2023-01-21T13:29:15.667Z,102561.13
2023-01-21T13:31:45.285Z,102566.13
2023-01-21T13:34:13.934Z,102554.25
2023-01-21T13:36:46.778Z,102537.72
2023-01-21T13:39:17.756Z,102546.47
2023-01-21T13:41:50.736Z,102553.28
2023-01-21T13:44:31.095Z,102568.78
2023-01-21T13:47:00.851Z,102550.69
2023-01-21T13:49:38.381Z,102564.50
2023-01-21T13:52:07.387Z,102565.41
2023-01-21T13:54:40.456Z,102556.81
2023-01-21T13:57:10.807Z,102556.84
2023-01-21T13:59:39.381Z,102573.28
2023-01-21T14:02:07.853Z,102554.19
2023-01-21T14:04:36.401Z,102560.31
2023-01-21T14:07:05.048Z,102565.47
2023-01-21T14:09:34.949Z,102562.84
2023-01-21T14:12:06.517Z,102559.50
2023-01-21T14:14:58.181Z,102581.06
2023-01-21T14:17:31.915Z,102575.09
2023-01-21T14:20:27.656Z,102564.63
2023-01-21T14:23:08.205Z,102581.16
2023-01-21T14:25:38.165Z,102580.25
2023-01-21T14:28:10.035Z,102578.59
2023-01-21T14:30:39.812Z,102569.97
2023-01-21T14:33:08.743Z,102576.91
2023-01-21T14:35:37.212Z,102573.41
2023-01-21T14:38:07.015Z,102588.22
2023-01-21T14:40:35.027Z,102589.06
2023-01-21T14:43:02.524Z,102606.47
2023-01-21T14:45:48.760Z,102589.09
2023-01-21T14:48:30.011Z,102601.16
2023-01-21T14:51:10.248Z,102591.56
2023-01-21T14:53:43.107Z,102586.44
2023-01-21T14:56:16.120Z,102578.69
2023-01-21T14:58:45.818Z,102570.84
2023-01-21T15:01:24.981Z,102571.69
2023-01-21T15:03:53.896Z,102567.34
2023-01-21T15:06:22.514Z,102573.44
2023-01-21T15:08:50.349Z,102567.25
2023-01-21T15:11:19.508Z,102592.59
2023-01-21T15:13:47.027Z,102589.13
2023-01-21T15:16:15.960Z,102592.63
2023-01-21T15:18:48.431Z,102590.88
2023-01-21T15:21:35.772Z,102592.59
2023-01-21T15:24:19.698Z,102595.22
2023-01-21T15:27:02.207Z,102597.81
2023-01-21T15:29:34.620Z,102595.22
2023-01-21T15:32:22.890Z,102596.94
2023-01-21T15:34:51.279Z,102596.94
2023-01-21T15:37:20.999Z,102610.00
2023-01-21T15:39:49.033Z,102604.78
2023-01-21T15:42:19.731Z,102604.75
2023-01-21T15:44:49.359Z,102603.75
2023-01-21T15:47:23.566Z,102610.84
2023-01-21T15:49:53.630Z,102609.84
2023-01-21T15:52:26.364Z,102602.03
2023-01-21T15:54:55.396Z,102609.78
2023-01-21T15:57:34.958Z,102621.94
2023-01-21T16:00:04.937Z,102620.19
2023-01-21T16:02:32.907Z,102627.16
2023-01-21T16:05:15.614Z,102622.75
2023-01-21T16:07:47.772Z,102614.84
2023-01-21T16:10:17.171Z,102615.66
2023-01-21T16:12:48.198Z,102621.72
2023-01-21T16:15:17.266Z,102624.38
2023-01-21T16:17:49.649Z,102625.25
2023-01-21T16:20:17.523Z,102614.78
2023-01-21T16:22:45.446Z,102612.97
2023-01-21T16:25:14.897Z,102624.31
2023-01-21T16:27:46.131Z,102614.50
2023-01-21T16:30:14.611Z,102629.44
2023-01-21T16:32:42.323Z,102628.53
2023-01-21T16:35:10.218Z,102626.81
2023-01-21T16:37:37.792Z,102619.00
2023-01-21T16:40:23.206Z,102615.47
2023-01-21T16:42:52.033Z,102628.63
2023-01-21T16:45:20.514Z,102625.06
2023-01-21T16:47:53.697Z,102618.94
2023-01-21T16:50:21.623Z,102638.16
2023-01-21T16:52:49.178Z,102639.06
2023-01-21T16:55:19.121Z,102615.19
2023-01-21T16:57:49.323Z,102623.25
2023-01-21T17:00:23.976Z,102629.53
2023-01-21T17:02:51.543Z,102618.81
2023-01-21T17:05:19.532Z,102618.88
2023-01-21T17:07:48.093Z,102623.31
2023-01-21T17:10:19.761Z,102640.06
2023-01-21T17:12:47.861Z,102629.56
2023-01-21T17:15:18.067Z,102623.63
2023-01-21T17:17:47.070Z,102634.09
2023-01-21T17:20:33.893Z,102629.81
2023-01-21T17:23:02.831Z,102627.06
2023-01-21T17:25:30.344Z,102628.66
2023-01-21T17:27:57.864Z,102625.06
2023-01-21T17:30:27.579Z,102638.25
2023-01-21T17:32:57.076Z,102638.28
2023-01-21T17:35:24.961Z,102639.13
2023-01-21T17:37:53.365Z,102640.97
2023-01-21T17:40:31.131Z,102643.78
2023-01-21T17:42:58.863Z,102648.00
2023-01-21T17:45:30.738Z,102651.53
2023-01-21T17:48:14.968Z,102647.97
2023-01-21T17:50:45.708Z,102653.03
2023-01-21T17:53:15.359Z,102640.81
2023-01-21T17:55:43.525Z,102627.44
2023-01-21T17:58:25.872Z,102641.38
2023-01-21T18:00:53.369Z,102632.63
2023-01-21T18:03:22.197Z,102626.44
2023-01-21T18:05:50.072Z,102644.78
2023-01-21T18:08:18.295Z,102633.31
2023-01-21T18:10:46.348Z,102631.38
2023-01-21T18:13:14.085Z,102644.66
2023-01-21T18:15:43.053Z,102647.06
2023-01-21T18:18:14.557Z,102656.72
2023-01-21T18:20:43.444Z,102640.97
2023-01-21T18:23:11.109Z,102639.09
2023-01-21T18:25:38.670Z,102653.34
2023-01-21T18:28:07.625Z,102650.75
2023-01-21T18:30:35.163Z,102646.91
2023-01-21T18:33:02.689Z,102652.38
2023-01-21T18:35:30.358Z,102658.53
2023-01-21T18:37:59.177Z,102647.00
2023-01-21T18:40:26.715Z,102651.50
2023-01-21T18:42:55.511Z,102639.13
2023-01-21T18:45:23.449Z,102647.16
2023-01-21T18:47:51.605Z,102642.56
2023-01-21T18:50:19.986Z,102650.50
2023-01-21T18:52:47.533Z,102651.44
2023-01-21T18:55:17.038Z,102648.81
2023-01-21T18:57:45.356Z,102646.84
2023-01-21T19:00:16.491Z,102650.44
2023-01-21T19:02:44.109Z,102648.59
2023-01-21T19:05:11.642Z,102652.97
2023-01-21T19:07:39.136Z,102653.00
2023-01-21T19:10:07.255Z,102646.94
2023-01-21T19:12:36.140Z,102641.47
2023-01-21T19:15:04.931Z,102645.25
2023-01-21T19:17:33.259Z,102637.13
2023-01-21T19:20:00.799Z,102643.38
2023-01-21T19:22:28.433Z,102646.88
2023-01-21T19:24:55.971Z,102647.78
2023-01-21T19:27:24.210Z,102652.81
2023-01-21T19:29:53.100Z,102645.78
2023-01-21T19:32:20.692Z,102654.75
2023-01-21T19:34:48.282Z,102650.16
2023-01-21T19:37:15.953Z,102649.31
2023-01-21T19:39:43.501Z,102641.31
2023-01-21T19:42:11.352Z,102645.63
2023-01-21T19:44:40.299Z,102640.53
2023-01-21T19:47:10.695Z,102643.03
2023-01-21T19:49:38.170Z,102634.75
2023-01-21T19:52:06.419Z,102637.44
2023-01-21T19:54:33.951Z,102645.72
2023-01-21T19:57:01.474Z,102631.38
2023-01-21T19:59:29.031Z,102640.16
2023-01-21T20:01:56.655Z,102622.59
2023-01-21T20:04:25.495Z,102634.72
2023-01-21T20:06:53.006Z,102633.72
2023-01-21T20:09:20.511Z,102649.84
2023-01-21T20:11:47.967Z,102645.41
2023-01-21T20:14:15.525Z,102643.78
2023-01-21T20:16:45.946Z,102641.91
2023-01-21T20:19:15.764Z,102657.00
2023-01-21T20:21:55.034Z,102658.00
2023-01-21T20:24:30.160Z,102649.16
2023-01-21T20:26:57.834Z,102647.06
2023-01-21T20:29:26.883Z,102642.44
2023-01-21T20:31:54.735Z,102640.88
2023-01-21T20:34:22.547Z,102655.22
2023-01-21T20:36:51.889Z,102650.00
2023-01-21T20:39:19.545Z,102645.44
2023-01-21T20:41:47.084Z,102645.78
2023-01-21T20:44:14.583Z,102660.41
2023-01-21T20:46:43.325Z,102649.63
2023-01-21T20:49:10.847Z,102650.66
2023-01-21T20:51:38.344Z,102654.00
2023-01-21T20:54:07.240Z,102652.94
2023-01-21T20:56:34.798Z,102648.97
2023-01-21T20:59:02.246Z,102654.34
2023-01-21T21:01:31.128Z,102643.59
2023-01-21T21:03:58.625Z,102638.06
2023-01-21T21:06:27.611Z,102657.00
2023-01-21T21:08:55.200Z,102654.16
2023-01-21T21:11:24.098Z,102635.66
2023-01-21T21:13:52.406Z,102645.41
2023-01-21T21:16:20.954Z,102644.44
2023-01-21T21:18:48.693Z,102646.75
2023-01-21T21:21:16.208Z,102644.44
2023-01-21T21:23:46.560Z,102642.63
2023-01-21T21:26:18.457Z,102627.50
2023-01-21T21:28:47.749Z,102645.22
2023-01-21T21:31:15.758Z,102645.13
2023-01-21T21:33:43.346Z,102641.28
2023-01-21T21:36:14.959Z,102636.53
2023-01-21T21:38:42.724Z,102635.25
2023-01-21T21:41:31.903Z,102654.16
2023-01-21T21:44:00.874Z,102635.84
2023-01-21T21:46:48.022Z,102655.41
2023-01-21T21:49:15.635Z,102631.69
2023-01-21T21:51:45.419Z,102630.97
2023-01-21T21:54:14.192Z,102634.56
2023-01-21T21:56:41.714Z,102641.94
2023-01-21T21:59:11.256Z,102640.09
2023-01-21T22:01:38.773Z,102639.75
2023-01-21T22:04:06.310Z,102640.69
2023-01-21T22:06:33.841Z,102641.63
2023-01-21T22:09:01.359Z,102648.59
2023-01-21T22:11:29.059Z,102646.09
2023-01-21T22:13:56.947Z,102651.22
2023-01-21T22:16:26.204Z,102643.09
2023-01-21T22:18:53.864Z,102641.41
2023-01-21T22:21:22.198Z,102643.38
2023-01-21T22:23:49.789Z,102641.50
2023-01-21T22:26:17.817Z,102644.47
2023-01-21T22:28:45.507Z,102639.34
2023-01-21T22:31:14.116Z,102630.91
2023-01-21T22:33:43.057Z,102631.00
2023-01-21T22:36:11.718Z,102627.78
2023-01-21T22:38:40.733Z,102634.19
2023-01-21T22:41:08.551Z,102627.94
2023-01-21T22:43:36.045Z,102629.44
2023-01-21T22:46:03.517Z,102621.84
2023-01-21T22:48:31.734Z,102632.66
2023-01-21T22:51:01.249Z,102634.16
2023-01-21T22:53:29.008Z,102623.72
2023-01-21T22:55:56.961Z,102625.47
2023-01-21T22:58:24.534Z,102627.97
2023-01-21T23:00:52.205Z,102628.63
2023-01-21T23:03:20.610Z,102619.66
2023-01-21T23:05:48.142Z,102636.31
2023-01-21T23:08:17.083Z,102639.25
2023-01-21T23:10:44.637Z,102627.53
2023-01-21T23:13:12.188Z,102645.53
2023-01-21T23:15:42.534Z,102635.75
2023-01-21T23:18:10.087Z,102641.22
2023-01-21T23:20:37.589Z,102643.09
2023-01-21T23:23:05.082Z,102634.91
2023-01-21T23:25:33.868Z,102634.13
2023-01-21T23:28:01.840Z,102638.41
2023-01-21T23:30:30.072Z,102624.19
2023-01-21T23:32:57.534Z,102645.38
2023-01-21T23:35:25.025Z,102644.44
2023-01-21T23:37:52.497Z,102638.09
2023-01-21T23:40:20.231Z,102626.59
2023-01-21T23:42:49.517Z,102644.44
2023-01-21T23:45:17.057Z,102636.06
2023-01-21T23:47:44.575Z,102624.09
2023-01-21T23:50:12.329Z,102621.88
2023-01-21T23:52:40.248Z,102624.97
2023-01-21T23:55:08.472Z,102610.50
2023-01-21T23:57:36.061Z,102615.53
